sensor_id;sensor_type;location;lat;lon;timestamp;P1;durP1;ratioP1;P2;durP2;ratioP2
5904;SDS011;2978;42.012;24.880;2023-04-04T00:01:13;12.30;;;10.10;;
5904;SDS011;2978;42.012;24.880;2023-04-04T00:03:40;11.10;;;9.80;;
5904;SDS011;2978;42.012;24.880;2023-04-04T00:06:05;11.00;;;9.90;;
5904;SDS011;2978;42.012;24.880;2023-04-04T00:08:31;10.43;;;9.43;;
5904;SDS011;2978;42.012;24.880;2023-04-04T00:10:59;14.80;;;10.43;;
5904;SDS011;2978;42.012;24.880;2023-04-04T00:13:25;10.60;;;9.60;;
5904;SDS011;2978;42.012;24.880;2023-04-04T00:15:51;11.53;;;10.43;;
5904;SDS011;2978;42.012;24.880;2023-04-04T00:18:17;15.73;;;11.67;;
5904;SDS011;2978;42.012;24.880;2023-04-04T00:20:43;13.20;;;11.73;;
5904;SDS011;2978;42.012;24.880;2023-04-04T00:23:08;14.03;;;11.97;;
5904;SDS011;2978;42.012;24.880;2023-04-04T00:25:35;16.20;;;13.67;;
5904;SDS011;2978;42.012;24.880;2023-04-04T00:28:01;18.20;;;14.57;;
5904;SDS011;2978;42.012;24.880;2023-04-04T00:30:27;16.13;;;14.43;;
5904;SDS011;2978;42.012;24.880;2023-04-04T00:32:53;16.37;;;14.70;;
5904;SDS011;2978;42.012;24.880;2023-04-04T00:35:20;16.70;;;14.93;;
5904;SDS011;2978;42.012;24.880;2023-04-04T00:37:45;20.73;;;15.70;;
5904;SDS011;2978;42.012;24.880;2023-04-04T00:40:11;17.40;;;15.40;;
5904;SDS011;2978;42.012;24.880;2023-04-04T00:42:36;19.70;;;15.70;;
5904;SDS011;2978;42.012;24.880;2023-04-04T00:45:02;20.37;;;15.80;;
5904;SDS011;2978;42.012;24.880;2023-04-04T00:47:30;17.73;;;14.57;;
5904;SDS011;2978;42.012;24.880;2023-04-04T00:49:57;18.17;;;13.30;;
5904;SDS011;2978;42.012;24.880;2023-04-04T00:52:22;17.00;;;14.93;;
5904;SDS011;2978;42.012;24.880;2023-04-04T00:54:48;16.63;;;14.10;;
5904;SDS011;2978;42.012;24.880;2023-04-04T00:57:14;18.40;;;15.47;;
5904;SDS011;2978;42.012;24.880;2023-04-04T00:59:40;16.50;;;14.90;;
5904;SDS011;2978;42.012;24.880;2023-04-04T01:02:06;14.30;;;13.00;;
5904;SDS011;2978;42.012;24.880;2023-04-04T01:04:32;12.07;;;10.77;;
5904;SDS011;2978;42.012;24.880;2023-04-04T01:06:57;12.80;;;11.00;;
5904;SDS011;2978;42.012;24.880;2023-04-04T01:09:24;12.87;;;11.70;;
5904;SDS011;2978;42.012;24.880;2023-04-04T01:11:50;12.30;;;11.10;;
5904;SDS011;2978;42.012;24.880;2023-04-04T01:14:16;11.97;;;10.87;;
5904;SDS011;2978;42.012;24.880;2023-04-04T01:16:41;9.60;;;8.70;;
5904;SDS011;2978;42.012;24.880;2023-04-04T01:19:12;8.13;;;7.40;;
5904;SDS011;2978;42.012;24.880;2023-04-04T01:21:44;7.93;;;7.07;;
5904;SDS011;2978;42.012;24.880;2023-04-04T01:24:11;7.57;;;6.87;;
5904;SDS011;2978;42.012;24.880;2023-04-04T01:26:40;7.43;;;6.40;;
5904;SDS011;2978;42.012;24.880;2023-04-04T01:29:05;7.63;;;6.93;;
5904;SDS011;2978;42.012;24.880;2023-04-04T01:31:36;7.47;;;6.80;;
5904;SDS011;2978;42.012;24.880;2023-04-04T01:34:13;12.10;;;8.60;;
5904;SDS011;2978;42.012;24.880;2023-04-04T01:36:56;9.10;;;8.30;;
5904;SDS011;2978;42.012;24.880;2023-04-04T01:39:40;11.43;;;10.33;;
5904;SDS011;2978;42.012;24.880;2023-04-04T01:42:12;13.40;;;12.10;;
5904;SDS011;2978;42.012;24.880;2023-04-04T01:44:38;14.63;;;12.70;;
5904;SDS011;2978;42.012;24.880;2023-04-04T01:47:07;14.00;;;12.70;;
5904;SDS011;2978;42.012;24.880;2023-04-04T01:49:33;13.13;;;11.67;;
5904;SDS011;2978;42.012;24.880;2023-04-04T01:51:59;6.80;;;6.20;;
5904;SDS011;2978;42.012;24.880;2023-04-04T01:54:25;8.40;;;7.47;;
5904;SDS011;2978;42.012;24.880;2023-04-04T01:56:52;7.20;;;6.60;;
5904;SDS011;2978;42.012;24.880;2023-04-04T01:59:17;9.50;;;8.03;;
5904;SDS011;2978;42.012;24.880;2023-04-04T02:01:43;16.50;;;13.20;;
5904;SDS011;2978;42.012;24.880;2023-04-04T02:04:08;7.80;;;7.10;;
5904;SDS011;2978;42.012;24.880;2023-04-04T02:06:36;5.40;;;4.90;;
5904;SDS011;2978;42.012;24.880;2023-04-04T02:09:02;6.40;;;5.80;;
5904;SDS011;2978;42.012;24.880;2023-04-04T02:11:28;4.30;;;3.90;;
5904;SDS011;2978;42.012;24.880;2023-04-04T02:13:53;3.30;;;3.00;;
5904;SDS011;2978;42.012;24.880;2023-04-04T02:16:19;3.53;;;3.23;;
5904;SDS011;2978;42.012;24.880;2023-04-04T02:18:45;2.97;;;2.67;;
5904;SDS011;2978;42.012;24.880;2023-04-04T02:21:10;3.33;;;2.50;;
5904;SDS011;2978;42.012;24.880;2023-04-04T02:23:36;3.20;;;2.27;;
5904;SDS011;2978;42.012;24.880;2023-04-04T02:26:03;2.50;;;2.30;;
5904;SDS011;2978;42.012;24.880;2023-04-04T02:28:28;2.27;;;1.80;;
5904;SDS011;2978;42.012;24.880;2023-04-04T02:30:55;2.60;;;2.40;;
5904;SDS011;2978;42.012;24.880;2023-04-04T02:33:25;2.17;;;1.97;;
5904;SDS011;2978;42.012;24.880;2023-04-04T02:35:51;3.10;;;2.30;;
5904;SDS011;2978;42.012;24.880;2023-04-04T02:38:16;2.37;;;2.20;;
5904;SDS011;2978;42.012;24.880;2023-04-04T02:40:43;4.30;;;2.47;;
5904;SDS011;2978;42.012;24.880;2023-04-04T02:43:09;3.33;;;3.03;;
5904;SDS011;2978;42.012;24.880;2023-04-04T02:45:35;2.50;;;2.30;;
5904;SDS011;2978;42.012;24.880;2023-04-04T02:48:01;3.17;;;2.67;;
5904;SDS011;2978;42.012;24.880;2023-04-04T02:50:27;3.63;;;3.10;;
5904;SDS011;2978;42.012;24.880;2023-04-04T02:52:57;3.53;;;3.23;;
5904;SDS011;2978;42.012;24.880;2023-04-04T02:55:23;5.63;;;3.37;;
5904;SDS011;2978;42.012;24.880;2023-04-04T02:57:49;3.70;;;3.40;;
5904;SDS011;2978;42.012;24.880;2023-04-04T03:00:16;4.60;;;3.70;;
5904;SDS011;2978;42.012;24.880;2023-04-04T03:02:42;3.40;;;3.20;;
5904;SDS011;2978;42.012;24.880;2023-04-04T03:05:07;4.43;;;2.70;;
5904;SDS011;2978;42.012;24.880;2023-04-04T03:07:33;6.47;;;3.70;;
5904;SDS011;2978;42.012;24.880;2023-04-04T03:09:58;3.70;;;3.40;;
5904;SDS011;2978;42.012;24.880;2023-04-04T03:12:24;9.50;;;4.40;;
5904;SDS011;2978;42.012;24.880;2023-04-04T03:14:49;3.30;;;3.00;;
5904;SDS011;2978;42.012;24.880;2023-04-04T03:17:15;2.90;;;2.67;;
5904;SDS011;2978;42.012;24.880;2023-04-04T03:19:42;4.47;;;2.93;;
5904;SDS011;2978;42.012;24.880;2023-04-04T03:22:07;5.43;;;3.47;;
5904;SDS011;2978;42.012;24.880;2023-04-04T03:24:33;4.80;;;3.50;;
5904;SDS011;2978;42.012;24.880;2023-04-04T03:26:59;7.17;;;3.57;;
5904;SDS011;2978;42.012;24.880;2023-04-04T03:29:25;4.90;;;3.33;;
5904;SDS011;2978;42.012;24.880;2023-04-04T03:31:51;3.43;;;3.13;;
5904;SDS011;2978;42.012;24.880;2023-04-04T03:34:16;5.60;;;4.13;;
5904;SDS011;2978;42.012;24.880;2023-04-04T03:36:42;3.97;;;3.50;;
5904;SDS011;2978;42.012;24.880;2023-04-04T03:39:07;7.53;;;4.30;;
5904;SDS011;2978;42.012;24.880;2023-04-04T03:41:34;9.20;;;4.43;;
5904;SDS011;2978;42.012;24.880;2023-04-04T03:43:59;12.40;;;4.23;;
5904;SDS011;2978;42.012;24.880;2023-04-04T03:46:25;22.37;;;16.20;;
5904;SDS011;2978;42.012;24.880;2023-04-04T03:48:50;21.67;;;17.20;;
5904;SDS011;2978;42.012;24.880;2023-04-04T03:51:21;28.40;;;18.97;;
5904;SDS011;2978;42.012;24.880;2023-04-04T03:53:50;38.93;;;26.43;;
5904;SDS011;2978;42.012;24.880;2023-04-04T03:56:15;40.37;;;28.67;;
5904;SDS011;2978;42.012;24.880;2023-04-04T03:58:41;33.50;;;26.03;;
5904;SDS011;2978;42.012;24.880;2023-04-04T04:01:06;35.57;;;27.17;;
5904;SDS011;2978;42.012;24.880;2023-04-04T04:03:32;37.73;;;26.60;;
5904;SDS011;2978;42.012;24.880;2023-04-04T04:05:58;33.07;;;25.93;;
5904;SDS011;2978;42.012;24.880;2023-04-04T04:08:23;32.87;;;25.33;;
5904;SDS011;2978;42.012;24.880;2023-04-04T04:10:49;31.27;;;24.33;;
5904;SDS011;2978;42.012;24.880;2023-04-04T04:13:15;22.47;;;19.37;;
5904;SDS011;2978;42.012;24.880;2023-04-04T04:15:40;25.27;;;19.50;;
5904;SDS011;2978;42.012;24.880;2023-04-04T04:18:06;21.87;;;18.90;;
5904;SDS011;2978;42.012;24.880;2023-04-04T04:20:31;24.60;;;21.13;;
5904;SDS011;2978;42.012;24.880;2023-04-04T04:22:57;19.20;;;17.10;;
5904;SDS011;2978;42.012;24.880;2023-04-04T04:25:22;24.37;;;18.10;;
5904;SDS011;2978;42.012;24.880;2023-04-04T04:27:47;27.23;;;18.67;;
5904;SDS011;2978;42.012;24.880;2023-04-04T04:30:13;20.27;;;18.03;;
5904;SDS011;2978;42.012;24.880;2023-04-04T04:32:38;21.97;;;18.13;;
5904;SDS011;2978;42.012;24.880;2023-04-04T04:35:04;22.30;;;18.70;;
5904;SDS011;2978;42.012;24.880;2023-04-04T04:37:30;23.43;;;18.70;;
5904;SDS011;2978;42.012;24.880;2023-04-04T04:39:56;26.50;;;19.50;;
5904;SDS011;2978;42.012;24.880;2023-04-04T04:42:21;30.07;;;21.13;;
5904;SDS011;2978;42.012;24.880;2023-04-04T04:44:47;32.47;;;18.80;;
5904;SDS011;2978;42.012;24.880;2023-04-04T04:47:12;29.90;;;21.90;;
5904;SDS011;2978;42.012;24.880;2023-04-04T04:49:38;36.67;;;25.10;;
5904;SDS011;2978;42.012;24.880;2023-04-04T04:52:03;27.43;;;20.90;;
5904;SDS011;2978;42.012;24.880;2023-04-04T04:54:29;28.73;;;20.40;;
5904;SDS011;2978;42.012;24.880;2023-04-04T04:56:54;27.90;;;19.43;;
5904;SDS011;2978;42.012;24.880;2023-04-04T04:59:19;26.03;;;21.80;;
5904;SDS011;2978;42.012;24.880;2023-04-04T05:01:45;28.63;;;23.30;;
5904;SDS011;2978;42.012;24.880;2023-04-04T05:04:10;28.33;;;22.50;;
5904;SDS011;2978;42.012;24.880;2023-04-04T05:06:37;26.43;;;17.40;;
5904;SDS011;2978;42.012;24.880;2023-04-04T05:09:02;21.20;;;18.07;;
5904;SDS011;2978;42.012;24.880;2023-04-04T05:11:28;29.00;;;20.50;;
5904;SDS011;2978;42.012;24.880;2023-04-04T05:13:54;26.30;;;18.30;;
5904;SDS011;2978;42.012;24.880;2023-04-04T05:16:20;23.10;;;18.80;;
5904;SDS011;2978;42.012;24.880;2023-04-04T05:18:46;20.73;;;17.90;;
5904;SDS011;2978;42.012;24.880;2023-04-04T05:21:11;22.80;;;19.57;;
5904;SDS011;2978;42.012;24.880;2023-04-04T05:23:37;19.30;;;17.30;;
5904;SDS011;2978;42.012;24.880;2023-04-04T05:26:03;27.63;;;19.20;;
5904;SDS011;2978;42.012;24.880;2023-04-04T05:28:28;23.67;;;20.30;;
5904;SDS011;2978;42.012;24.880;2023-04-04T05:30:54;24.90;;;18.90;;
5904;SDS011;2978;42.012;24.880;2023-04-04T05:33:19;27.93;;;21.23;;
5904;SDS011;2978;42.012;24.880;2023-04-04T05:35:44;28.90;;;21.27;;
5904;SDS011;2978;42.012;24.880;2023-04-04T05:38:10;27.07;;;20.20;;
5904;SDS011;2978;42.012;24.880;2023-04-04T05:40:35;28.03;;;20.90;;
5904;SDS011;2978;42.012;24.880;2023-04-04T05:43:04;31.00;;;22.87;;
5904;SDS011;2978;42.012;24.880;2023-04-04T05:45:30;43.13;;;23.70;;
5904;SDS011;2978;42.012;24.880;2023-04-04T05:47:56;42.70;;;24.80;;
5904;SDS011;2978;42.012;24.880;2023-04-04T05:50:21;39.07;;;25.50;;
5904;SDS011;2978;42.012;24.880;2023-04-04T05:52:47;37.10;;;24.27;;
5904;SDS011;2978;42.012;24.880;2023-04-04T05:55:12;38.40;;;25.73;;
5904;SDS011;2978;42.012;24.880;2023-04-04T05:57:45;46.00;;;27.10;;
5904;SDS011;2978;42.012;24.880;2023-04-04T06:00:12;40.13;;;26.20;;
5904;SDS011;2978;42.012;24.880;2023-04-04T06:02:38;49.90;;;27.83;;
5904;SDS011;2978;42.012;24.880;2023-04-04T06:05:03;52.73;;;29.57;;
5904;SDS011;2978;42.012;24.880;2023-04-04T06:07:29;50.27;;;28.90;;
5904;SDS011;2978;42.012;24.880;2023-04-04T06:09:54;50.87;;;29.27;;
5904;SDS011;2978;42.012;24.880;2023-04-04T06:12:20;55.63;;;30.67;;
5904;SDS011;2978;42.012;24.880;2023-04-04T06:14:45;57.23;;;28.13;;
5904;SDS011;2978;42.012;24.880;2023-04-04T06:17:11;59.23;;;29.90;;
5904;SDS011;2978;42.012;24.880;2023-04-04T06:19:36;59.60;;;30.73;;
5904;SDS011;2978;42.012;24.880;2023-04-04T06:22:02;59.60;;;30.37;;
5904;SDS011;2978;42.012;24.880;2023-04-04T06:24:27;64.57;;;34.13;;
5904;SDS011;2978;42.012;24.880;2023-04-04T06:26:53;54.83;;;29.20;;
5904;SDS011;2978;42.012;24.880;2023-04-04T06:29:18;48.73;;;26.73;;
5904;SDS011;2978;42.012;24.880;2023-04-04T06:31:44;59.90;;;30.13;;
5904;SDS011;2978;42.012;24.880;2023-04-04T06:34:09;52.13;;;28.47;;
5904;SDS011;2978;42.012;24.880;2023-04-04T06:36:35;47.57;;;27.70;;
5904;SDS011;2978;42.012;24.880;2023-04-04T06:39:00;49.80;;;25.77;;
5904;SDS011;2978;42.012;24.880;2023-04-04T06:41:26;45.63;;;25.40;;
5904;SDS011;2978;42.012;24.880;2023-04-04T06:43:51;41.67;;;23.30;;
5904;SDS011;2978;42.012;24.880;2023-04-04T06:46:17;47.93;;;25.00;;
5904;SDS011;2978;42.012;24.880;2023-04-04T06:48:42;39.27;;;23.47;;
5904;SDS011;2978;42.012;24.880;2023-04-04T06:51:09;44.77;;;25.13;;
5904;SDS011;2978;42.012;24.880;2023-04-04T06:53:35;46.00;;;25.60;;
5904;SDS011;2978;42.012;24.880;2023-04-04T06:56:01;44.30;;;22.60;;
5904;SDS011;2978;42.012;24.880;2023-04-04T06:58:27;35.07;;;22.70;;
5904;SDS011;2978;42.012;24.880;2023-04-04T07:00:52;37.40;;;21.40;;
5904;SDS011;2978;42.012;24.880;2023-04-04T07:03:18;40.37;;;25.70;;
5904;SDS011;2978;42.012;24.880;2023-04-04T07:05:44;74.27;;;47.10;;
5904;SDS011;2978;42.012;24.880;2023-04-04T07:08:10;63.00;;;42.27;;
5904;SDS011;2978;42.012;24.880;2023-04-04T07:10:36;77.13;;;53.60;;
5904;SDS011;2978;42.012;24.880;2023-04-04T07:13:01;87.73;;;52.03;;
5904;SDS011;2978;42.012;24.880;2023-04-04T07:15:27;78.43;;;50.13;;
5904;SDS011;2978;42.012;24.880;2023-04-04T07:17:53;73.20;;;49.63;;
5904;SDS011;2978;42.012;24.880;2023-04-04T07:20:18;51.87;;;36.57;;
5904;SDS011;2978;42.012;24.880;2023-04-04T07:22:44;51.00;;;35.73;;
5904;SDS011;2978;42.012;24.880;2023-04-04T07:25:10;33.37;;;21.77;;
5904;SDS011;2978;42.012;24.880;2023-04-04T07:27:37;43.10;;;24.80;;
5904;SDS011;2978;42.012;24.880;2023-04-04T07:30:04;64.20;;;36.80;;
5904;SDS011;2978;42.012;24.880;2023-04-04T07:32:31;36.27;;;22.87;;
5904;SDS011;2978;42.012;24.880;2023-04-04T07:34:56;32.67;;;20.07;;
5904;SDS011;2978;42.012;24.880;2023-04-04T07:37:22;39.00;;;21.37;;
5904;SDS011;2978;42.012;24.880;2023-04-04T07:39:47;39.53;;;22.23;;
5904;SDS011;2978;42.012;24.880;2023-04-04T07:42:14;36.13;;;22.40;;
5904;SDS011;2978;42.012;24.880;2023-04-04T07:44:40;56.90;;;31.37;;
5904;SDS011;2978;42.012;24.880;2023-04-04T07:47:05;40.40;;;26.80;;
5904;SDS011;2978;42.012;24.880;2023-04-04T07:49:31;36.07;;;19.07;;
5904;SDS011;2978;42.012;24.880;2023-04-04T07:51:57;28.50;;;20.37;;
5904;SDS011;2978;42.012;24.880;2023-04-04T07:54:22;35.93;;;21.90;;
5904;SDS011;2978;42.012;24.880;2023-04-04T07:56:49;39.73;;;21.80;;
5904;SDS011;2978;42.012;24.880;2023-04-04T07:59:15;33.50;;;22.07;;
5904;SDS011;2978;42.012;24.880;2023-04-04T08:01:40;37.43;;;20.80;;
5904;SDS011;2978;42.012;24.880;2023-04-04T08:04:06;33.20;;;22.27;;
5904;SDS011;2978;42.012;24.880;2023-04-04T08:06:32;29.97;;;21.43;;
5904;SDS011;2978;42.012;24.880;2023-04-04T08:08:58;36.00;;;20.27;;
5904;SDS011;2978;42.012;24.880;2023-04-04T08:11:23;35.57;;;21.03;;
5904;SDS011;2978;42.012;24.880;2023-04-04T08:13:49;34.57;;;22.97;;
5904;SDS011;2978;42.012;24.880;2023-04-04T08:16:15;34.30;;;21.77;;
5904;SDS011;2978;42.012;24.880;2023-04-04T08:18:41;34.13;;;22.30;;
5904;SDS011;2978;42.012;24.880;2023-04-04T08:21:07;33.10;;;21.00;;
5904;SDS011;2978;42.012;24.880;2023-04-04T08:23:32;26.20;;;17.27;;
5904;SDS011;2978;42.012;24.880;2023-04-04T08:25:58;24.30;;;18.47;;
5904;SDS011;2978;42.012;24.880;2023-04-04T08:28:24;29.40;;;18.53;;
5904;SDS011;2978;42.012;24.880;2023-04-04T08:30:51;24.03;;;15.93;;
5904;SDS011;2978;42.012;24.880;2023-04-04T08:33:18;28.70;;;17.30;;
5904;SDS011;2978;42.012;24.880;2023-04-04T08:35:44;27.60;;;16.43;;
5904;SDS011;2978;42.012;24.880;2023-04-04T08:38:09;22.40;;;16.90;;
5904;SDS011;2978;42.012;24.880;2023-04-04T08:40:35;29.00;;;18.33;;
5904;SDS011;2978;42.012;24.880;2023-04-04T08:43:02;32.93;;;15.60;;
5904;SDS011;2978;42.012;24.880;2023-04-04T08:45:29;33.10;;;16.70;;
5904;SDS011;2978;42.012;24.880;2023-04-04T08:47:57;27.40;;;17.10;;
5904;SDS011;2978;42.012;24.880;2023-04-04T08:50:25;51.00;;;19.60;;
5904;SDS011;2978;42.012;24.880;2023-04-04T08:52:53;30.73;;;17.27;;
5904;SDS011;2978;42.012;24.880;2023-04-04T08:55:19;34.20;;;19.27;;
5904;SDS011;2978;42.012;24.880;2023-04-04T08:57:45;26.33;;;17.30;;
5904;SDS011;2978;42.012;24.880;2023-04-04T09:00:11;36.10;;;18.23;;
5904;SDS011;2978;42.012;24.880;2023-04-04T09:02:39;26.30;;;15.17;;
5904;SDS011;2978;42.012;24.880;2023-04-04T09:05:10;27.43;;;15.37;;
5904;SDS011;2978;42.012;24.880;2023-04-04T09:07:38;23.07;;;14.70;;
5904;SDS011;2978;42.012;24.880;2023-04-04T09:10:04;24.63;;;14.10;;
5904;SDS011;2978;42.012;24.880;2023-04-04T09:12:33;33.07;;;16.03;;
5904;SDS011;2978;42.012;24.880;2023-04-04T09:15:00;23.97;;;15.90;;
5904;SDS011;2978;42.012;24.880;2023-04-04T09:17:27;35.60;;;17.87;;
5904;SDS011;2978;42.012;24.880;2023-04-04T09:19:53;22.83;;;15.20;;
5904;SDS011;2978;42.012;24.880;2023-04-04T09:22:19;22.90;;;14.60;;
5904;SDS011;2978;42.012;24.880;2023-04-04T09:24:45;24.93;;;15.63;;
5904;SDS011;2978;42.012;24.880;2023-04-04T09:27:12;23.90;;;12.33;;
5904;SDS011;2978;42.012;24.880;2023-04-04T09:29:40;25.53;;;13.50;;
5904;SDS011;2978;42.012;24.880;2023-04-04T09:32:06;25.10;;;13.03;;
5904;SDS011;2978;42.012;24.880;2023-04-04T09:34:38;28.70;;;14.37;;
5904;SDS011;2978;42.012;24.880;2023-04-04T09:37:05;29.00;;;15.03;;
5904;SDS011;2978;42.012;24.880;2023-04-04T09:39:31;29.37;;;15.93;;
5904;SDS011;2978;42.012;24.880;2023-04-04T09:41:58;28.60;;;14.30;;
5904;SDS011;2978;42.012;24.880;2023-04-04T09:44:25;19.30;;;12.70;;
5904;SDS011;2978;42.012;24.880;2023-04-04T09:46:51;23.87;;;14.37;;
5904;SDS011;2978;42.012;24.880;2023-04-04T09:49:18;38.27;;;20.80;;
5904;SDS011;2978;42.012;24.880;2023-04-04T09:51:48;20.77;;;14.97;;
5904;SDS011;2978;42.012;24.880;2023-04-04T09:54:21;29.43;;;15.60;;
5904;SDS011;2978;42.012;24.880;2023-04-04T09:56:47;36.10;;;16.73;;
5904;SDS011;2978;42.012;24.880;2023-04-04T09:59:14;37.07;;;17.87;;
5904;SDS011;2978;42.012;24.880;2023-04-04T10:01:42;29.87;;;15.23;;
5904;SDS011;2978;42.012;24.880;2023-04-04T10:04:09;27.27;;;16.07;;
5904;SDS011;2978;42.012;24.880;2023-04-04T10:06:35;28.37;;;15.23;;
5904;SDS011;2978;42.012;24.880;2023-04-04T10:09:01;22.07;;;12.83;;
5904;SDS011;2978;42.012;24.880;2023-04-04T10:11:31;19.73;;;11.70;;
5904;SDS011;2978;42.012;24.880;2023-04-04T10:13:58;22.33;;;11.47;;
5904;SDS011;2978;42.012;24.880;2023-04-04T10:16:24;21.43;;;13.17;;
5904;SDS011;2978;42.012;24.880;2023-04-04T10:18:50;24.73;;;11.57;;
5904;SDS011;2978;42.012;24.880;2023-04-04T10:21:17;12.93;;;10.73;;
5904;SDS011;2978;42.012;24.880;2023-04-04T10:23:44;29.13;;;12.07;;
5904;SDS011;2978;42.012;24.880;2023-04-04T10:26:11;20.73;;;12.07;;
5904;SDS011;2978;42.012;24.880;2023-04-04T10:28:36;17.50;;;9.93;;
5904;SDS011;2978;42.012;24.880;2023-04-04T10:31:14;15.93;;;9.73;;
5904;SDS011;2978;42.012;24.880;2023-04-04T10:36:44;12.97;;;9.27;;
5904;SDS011;2978;42.012;24.880;2023-04-04T10:41:57;14.07;;;9.90;;
5904;SDS011;2978;42.012;24.880;2023-04-04T10:46:57;14.77;;;10.10;;
5904;SDS011;2978;42.012;24.880;2023-04-04T10:49:27;12.17;;;9.20;;
5904;SDS011;2978;42.012;24.880;2023-04-04T10:51:54;21.57;;;10.00;;
5904;SDS011;2978;42.012;24.880;2023-04-04T10:54:20;18.00;;;9.20;;
5904;SDS011;2978;42.012;24.880;2023-04-04T10:56:46;15.87;;;9.53;;
5904;SDS011;2978;42.012;24.880;2023-04-04T10:59:13;18.60;;;9.90;;
5904;SDS011;2978;42.012;24.880;2023-04-04T11:01:46;18.37;;;11.20;;
5904;SDS011;2978;42.012;24.880;2023-04-04T11:04:17;31.43;;;15.60;;
5904;SDS011;2978;42.012;24.880;2023-04-04T11:12:14;18.20;;;10.90;;
5904;SDS011;2978;42.012;24.880;2023-04-04T11:14:57;21.57;;;9.87;;
5904;SDS011;2978;42.012;24.880;2023-04-04T11:20:19;20.43;;;9.17;;
5904;SDS011;2978;42.012;24.880;2023-04-04T11:23:00;18.70;;;13.10;;
5904;SDS011;2978;42.012;24.880;2023-04-04T11:25:37;22.13;;;10.10;;
5904;SDS011;2978;42.012;24.880;2023-04-04T11:28:13;18.40;;;11.00;;
5904;SDS011;2978;42.012;24.880;2023-04-04T11:30:52;17.50;;;8.83;;
5904;SDS011;2978;42.012;24.880;2023-04-04T11:44:16;19.63;;;10.23;;
5904;SDS011;2978;42.012;24.880;2023-04-04T11:46:42;24.43;;;10.93;;
5904;SDS011;2978;42.012;24.880;2023-04-04T11:49:08;19.43;;;12.77;;
5904;SDS011;2978;42.012;24.880;2023-04-04T11:51:34;26.73;;;18.10;;
5904;SDS011;2978;42.012;24.880;2023-04-04T11:54:00;26.23;;;18.00;;
5904;SDS011;2978;42.012;24.880;2023-04-04T11:56:26;26.90;;;17.93;;
5904;SDS011;2978;42.012;24.880;2023-04-04T11:58:51;32.67;;;17.00;;
5904;SDS011;2978;42.012;24.880;2023-04-04T12:01:17;20.60;;;12.83;;
5904;SDS011;2978;42.012;24.880;2023-04-04T12:03:44;27.30;;;21.03;;
5904;SDS011;2978;42.012;24.880;2023-04-04T12:06:10;23.73;;;18.20;;
5904;SDS011;2978;42.012;24.880;2023-04-04T12:08:36;29.63;;;21.27;;
5904;SDS011;2978;42.012;24.880;2023-04-04T12:11:03;15.67;;;10.63;;
5904;SDS011;2978;42.012;24.880;2023-04-04T12:13:31;14.13;;;9.40;;
5904;SDS011;2978;42.012;24.880;2023-04-04T12:15:57;16.63;;;9.97;;
5904;SDS011;2978;42.012;24.880;2023-04-04T12:18:22;21.03;;;9.40;;
5904;SDS011;2978;42.012;24.880;2023-04-04T12:20:51;13.30;;;8.87;;
5904;SDS011;2978;42.012;24.880;2023-04-04T12:23:17;15.43;;;9.10;;
5904;SDS011;2978;42.012;24.880;2023-04-04T12:25:42;19.63;;;11.40;;
5904;SDS011;2978;42.012;24.880;2023-04-04T12:28:09;16.33;;;9.40;;
5904;SDS011;2978;42.012;24.880;2023-04-04T12:30:38;17.30;;;9.20;;
5904;SDS011;2978;42.012;24.880;2023-04-04T12:33:04;17.07;;;10.60;;
5904;SDS011;2978;42.012;24.880;2023-04-04T12:35:30;17.63;;;9.70;;
5904;SDS011;2978;42.012;24.880;2023-04-04T12:37:56;15.80;;;10.40;;
5904;SDS011;2978;42.012;24.880;2023-04-04T12:40:36;13.20;;;8.53;;
5904;SDS011;2978;42.012;24.880;2023-04-04T12:43:06;14.17;;;9.63;;
5904;SDS011;2978;42.012;24.880;2023-04-04T12:45:36;10.93;;;8.23;;
5904;SDS011;2978;42.012;24.880;2023-04-04T12:48:07;15.50;;;6.30;;
5904;SDS011;2978;42.012;24.880;2023-04-04T12:50:44;10.30;;;6.73;;
5904;SDS011;2978;42.012;24.880;2023-04-04T12:53:18;10.70;;;7.73;;
5904;SDS011;2978;42.012;24.880;2023-04-04T12:55:44;13.43;;;8.20;;
5904;SDS011;2978;42.012;24.880;2023-04-04T12:58:12;7.73;;;6.80;;
5904;SDS011;2978;42.012;24.880;2023-04-04T13:00:40;13.83;;;9.13;;
5904;SDS011;2978;42.012;24.880;2023-04-04T13:03:05;14.20;;;8.50;;
5904;SDS011;2978;42.012;24.880;2023-04-04T13:05:32;13.13;;;8.00;;
5904;SDS011;2978;42.012;24.880;2023-04-04T13:08:09;13.87;;;7.70;;
5904;SDS011;2978;42.012;24.880;2023-04-04T13:13:34;15.37;;;10.20;;
5904;SDS011;2978;42.012;24.880;2023-04-04T13:16:07;11.53;;;7.37;;
5904;SDS011;2978;42.012;24.880;2023-04-04T13:18:37;13.90;;;7.57;;
5904;SDS011;2978;42.012;24.880;2023-04-04T13:21:11;11.13;;;8.03;;
5904;SDS011;2978;42.012;24.880;2023-04-04T13:23:37;10.93;;;7.53;;
5904;SDS011;2978;42.012;24.880;2023-04-04T13:26:05;11.07;;;7.03;;
5904;SDS011;2978;42.012;24.880;2023-04-04T13:28:32;10.40;;;7.00;;
5904;SDS011;2978;42.012;24.880;2023-04-04T13:31:00;8.37;;;5.80;;
5904;SDS011;2978;42.012;24.880;2023-04-04T13:33:26;10.77;;;5.70;;
5904;SDS011;2978;42.012;24.880;2023-04-04T13:35:51;6.70;;;5.83;;
5904;SDS011;2978;42.012;24.880;2023-04-04T13:38:17;12.00;;;5.90;;
5904;SDS011;2978;42.012;24.880;2023-04-04T13:40:42;10.37;;;6.60;;
5904;SDS011;2978;42.012;24.880;2023-04-04T13:43:08;9.00;;;6.77;;
5904;SDS011;2978;42.012;24.880;2023-04-04T13:45:35;8.47;;;6.70;;
5904;SDS011;2978;42.012;24.880;2023-04-04T13:48:01;10.10;;;6.67;;
5904;SDS011;2978;42.012;24.880;2023-04-04T13:50:29;13.50;;;7.00;;
5904;SDS011;2978;42.012;24.880;2023-04-04T13:52:55;7.90;;;6.60;;
5904;SDS011;2978;42.012;24.880;2023-04-04T13:55:20;10.20;;;6.73;;
5904;SDS011;2978;42.012;24.880;2023-04-04T14:04:06;11.40;;;6.67;;
5904;SDS011;2978;42.012;24.880;2023-04-04T14:06:40;8.30;;;6.93;;
5904;SDS011;2978;42.012;24.880;2023-04-04T14:09:06;6.77;;;6.07;;
5904;SDS011;2978;42.012;24.880;2023-04-04T14:11:32;9.20;;;5.27;;
5904;SDS011;2978;42.012;24.880;2023-04-04T14:13:58;5.67;;;3.60;;
5904;SDS011;2978;42.012;24.880;2023-04-04T14:16:29;4.50;;;4.03;;
5904;SDS011;2978;42.012;24.880;2023-04-04T14:19:03;8.13;;;5.63;;
5904;SDS011;2978;42.012;24.880;2023-04-04T14:21:30;6.73;;;5.00;;
5904;SDS011;2978;42.012;24.880;2023-04-04T14:23:58;7.40;;;5.30;;
5904;SDS011;2978;42.012;24.880;2023-04-04T14:26:26;6.13;;;4.77;;
5904;SDS011;2978;42.012;24.880;2023-04-04T14:29:08;10.50;;;5.33;;
5904;SDS011;2978;42.012;24.880;2023-04-04T14:32:09;8.77;;;6.93;;
5904;SDS011;2978;42.012;24.880;2023-04-04T14:34:47;9.40;;;7.00;;
5904;SDS011;2978;42.012;24.880;2023-04-04T15:24:16;12.40;;;7.50;;
5904;SDS011;2978;42.012;24.880;2023-04-04T15:26:41;4.17;;;3.43;;
5904;SDS011;2978;42.012;24.880;2023-04-04T15:29:07;6.50;;;3.33;;
5904;SDS011;2978;42.012;24.880;2023-04-04T15:31:32;14.23;;;3.50;;
5904;SDS011;2978;42.012;24.880;2023-04-04T15:33:58;5.40;;;2.37;;
5904;SDS011;2978;42.012;24.880;2023-04-04T15:36:24;7.10;;;4.37;;
5904;SDS011;2978;42.012;24.880;2023-04-04T15:38:52;11.30;;;3.57;;
5904;SDS011;2978;42.012;24.880;2023-04-04T15:41:18;2.10;;;1.90;;
5904;SDS011;2978;42.012;24.880;2023-04-04T15:43:44;6.33;;;1.83;;
5904;SDS011;2978;42.012;24.880;2023-04-04T15:46:09;7.47;;;2.50;;
5904;SDS011;2978;42.012;24.880;2023-04-04T15:48:35;2.40;;;1.90;;
5904;SDS011;2978;42.012;24.880;2023-04-04T15:51:00;2.93;;;2.10;;
5904;SDS011;2978;42.012;24.880;2023-04-04T15:53:27;7.33;;;4.83;;
5904;SDS011;2978;42.012;24.880;2023-04-04T15:55:53;3.67;;;2.70;;
5904;SDS011;2978;42.012;24.880;2023-04-04T15:58:19;3.23;;;2.17;;
5904;SDS011;2978;42.012;24.880;2023-04-04T16:00:44;5.00;;;2.10;;
5904;SDS011;2978;42.012;24.880;2023-04-04T16:03:11;4.80;;;2.50;;
5904;SDS011;2978;42.012;24.880;2023-04-04T16:05:36;5.03;;;2.17;;